Time;durP1;ratioP1;P1;durP2;ratioP2;P2;SDS_P1;SDS_P2;PMS_P1;PMS_P2;Temp;Humidity;BMP_temperature;BMP_pressure;BME280_temperature;BME280_humidity;BME280_pressure;Samples;Min_cycle;Max_cycle;Signal;HPM_P1;HPM_P2
2023/03/17 00:00:13;;;;;;;4.20;2.67;;;8.60;99.90;;;;;;5052587;28;20978;-71
2023/03/17 00:02:41;;;;;;;4.77;2.13;;;8.50;99.90;;;;;;5052667;28;20187;-72
2023/03/17 00:05:38;;;;;;;2.13;1.70;;;8.50;99.90;;;;;;5052628;28;20416;-71
2023/03/17 00:08:11;;;;;;;2.40;1.73;;;8.50;99.90;;;;;;5050044;28;20418;-71
2023/03/17 00:10:37;;;;;;;3.60;1.80;;;8.50;99.90;;;;;;5052590;28;20402;-71
2023/03/17 00:13:03;;;;;;;2.13;1.90;;;8.50;99.90;;;;;;5052102;28;20432;-71
2023/03/17 00:15:29;;;;;;;2.77;2.30;;;8.50;99.90;;;;;;5052444;28;20818;-70
2023/03/17 00:17:56;;;;;;;3.37;2.33;;;8.40;99.90;;;;;;5051978;28;20224;-70
2023/03/17 00:20:29;;;;;;;9.73;2.67;;;8.40;99.90;;;;;;5052349;28;20399;-71
2023/03/17 00:22:58;;;;;;;2.20;2.00;;;8.40;99.90;;;;;;5051231;28;20425;-70
2023/03/17 00:25:29;;;;;;;2.67;2.47;;;8.30;99.90;;;;;;5050762;28;20409;-70
2023/03/17 00:27:57;;;;;;;3.17;2.70;;;8.30;99.90;;;;;;5051571;28;20405;-70
2023/03/17 00:30:23;;;;;;;3.47;1.70;;;8.20;99.90;;;;;;5052506;28;20462;-71
2023/03/17 00:32:51;;;;;;;2.23;2.03;;;8.20;99.90;;;;;;5063466;28;20425;-71
2023/03/17 00:35:23;;;;;;;3.07;2.10;;;8.30;99.90;;;;;;5052061;28;20456;-70
2023/03/17 00:37:51;;;;;;;3.00;2.30;;;8.20;99.90;;;;;;5051657;28;20402;-71
2023/03/17 00:40:20;;;;;;;2.67;2.47;;;8.20;99.90;;;;;;5051632;28;20398;-71
2023/03/17 00:42:46;;;;;;;4.50;2.23;;;8.20;99.90;;;;;;5051706;28;20416;-72
2023/03/17 00:45:12;;;;;;;2.33;2.10;;;8.10;99.90;;;;;;5051841;28;20408;-70
2023/03/17 00:47:39;;;;;;;2.00;1.87;;;8.10;99.90;;;;;;5051476;28;20879;-70
2023/03/17 00:50:05;;;;;;;3.77;1.93;;;8.10;99.90;;;;;;5052141;28;20915;-71
2023/03/17 00:52:32;;;;;;;4.83;2.30;;;8.10;99.90;;;;;;5054814;28;20425;-71
2023/03/17 00:54:57;;;;;;;3.80;2.40;;;8.10;99.90;;;;;;5056090;28;20459;-71
2023/03/17 00:57:23;;;;;;;2.77;2.30;;;8.10;99.90;;;;;;5054154;28;20412;-71
2023/03/17 00:59:49;;;;;;;2.70;2.47;;;8.10;99.90;;;;;;5054125;28;20174;-70
2023/03/17 01:02:14;;;;;;;4.90;2.73;;;8.10;99.90;;;;;;5055717;28;20615;-71
2023/03/17 01:04:41;;;;;;;1.77;1.67;;;8.10;99.90;;;;;;5046124;28;20593;-72
2023/03/17 01:07:09;;;;;;;3.73;2.57;;;8.00;99.90;;;;;;5035654;28;20195;-72
2023/03/17 01:09:35;;;;;;;5.30;2.47;;;8.00;99.90;;;;;;5035524;28;20422;-70
2023/03/17 01:12:01;;;;;;;3.63;2.80;;;8.00;99.90;;;;;;5035299;28;20483;-70
2023/03/17 01:14:26;;;;;;;3.23;2.37;;;8.00;99.90;;;;;;5035113;28;20672;-70
2023/03/17 01:16:53;;;;;;;3.57;2.83;;;8.00;99.90;;;;;;5033702;28;20171;-71
2023/03/17 01:19:19;;;;;;;4.60;2.40;;;7.90;99.90;;;;;;5035525;28;20175;-71
2023/03/17 01:21:45;;;;;;;4.40;1.97;;;7.90;99.90;;;;;;5035367;28;20426;-70
2023/03/17 01:24:11;;;;;;;4.30;2.87;;;7.70;99.90;;;;;;5035240;28;20171;-71
2023/03/17 01:26:38;;;;;;;2.57;2.10;;;7.70;99.90;;;;;;5035112;28;20401;-70
2023/03/17 01:29:05;;;;;;;2.23;2.00;;;7.60;99.90;;;;;;5034812;28;20402;-70
2023/03/17 01:31:30;;;;;;;3.93;2.17;;;7.50;99.90;;;;;;5035133;28;20418;-71
2023/03/17 01:33:56;;;;;;;2.33;2.17;;;7.50;99.90;;;;;;5034984;28;20774;-71
2023/03/17 01:36:22;;;;;;;6.37;2.60;;;7.40;99.90;;;;;;5035082;28;20195;-71
2023/03/17 01:38:49;;;;;;;1.73;1.50;;;7.40;99.90;;;;;;5034882;28;20413;-71
2023/03/17 01:41:16;;;;;;;3.63;2.10;;;7.40;99.90;;;;;;5034835;28;20649;-72
2023/03/17 01:43:42;;;;;;;2.10;1.90;;;7.30;99.90;;;;;;5061588;28;20478;-72
2023/03/17 01:46:19;;;;;;;2.23;2.03;;;7.20;99.90;;;;;;5055277;28;21153;-71
2023/03/17 01:48:53;;;;;;;3.90;2.03;;;7.20;99.90;;;;;;5053249;28;20495;-70
2023/03/17 01:51:30;;;;;;;2.33;1.90;;;7.20;99.90;;;;;;5054631;28;20499;-70
2023/03/17 01:53:57;;;;;;;6.87;2.30;;;7.30;99.90;;;;;;5054457;28;20424;-70
2023/03/17 01:56:23;;;;;;;2.60;2.40;;;7.30;99.90;;;;;;5053073;28;20987;-71
2023/03/17 01:58:52;;;;;;;3.70;2.20;;;7.40;99.90;;;;;;5054137;28;20404;-70
2023/03/17 02:01:22;;;;;;;3.87;3.57;;;7.40;99.90;;;;;;5054845;28;20417;-70
2023/03/17 02:03:48;;;;;;;3.33;2.17;;;7.40;99.90;;;;;;5051526;28;20397;-71
2023/03/17 02:06:13;;;;;;;3.60;2.77;;;7.50;99.90;;;;;;5033513;28;20414;-71
2023/03/17 02:08:39;;;;;;;8.07;2.50;;;7.50;99.90;;;;;;5034431;28;20542;-70
2023/03/17 02:11:05;;;;;;;2.80;1.87;;;7.50;99.90;;;;;;5034590;28;20626;-72
2023/03/17 02:13:32;;;;;;;2.53;1.67;;;7.50;99.90;;;;;;5034589;28;20183;-70
2023/03/17 02:15:58;;;;;;;3.50;1.93;;;7.40;99.90;;;;;;5034671;28;20476;-70
2023/03/17 02:18:23;;;;;;;2.67;2.47;;;7.40;99.90;;;;;;5034258;28;20426;-71
2023/03/17 02:20:49;;;;;;;3.20;2.17;;;7.40;99.90;;;;;;5033050;28;20808;-70
2023/03/17 02:23:19;;;;;;;3.10;2.23;;;7.40;99.90;;;;;;5034236;28;20179;-71
2023/03/17 02:25:46;;;;;;;2.77;2.40;;;7.30;99.90;;;;;;5033875;28;20402;-71
2023/03/17 02:28:15;;;;;;;4.67;2.50;;;7.30;99.90;;;;;;5032211;28;20419;-71
2023/03/17 02:30:42;;;;;;;5.40;2.23;;;7.30;99.90;;;;;;5033907;28;20558;-70
2023/03/17 02:33:08;;;;;;;2.80;2.23;;;7.30;99.90;;;;;;5033743;28;20919;-69
2023/03/17 02:35:34;;;;;;;4.10;2.00;;;7.20;99.90;;;;;;5034014;28;20452;-70
2023/03/17 02:38:00;;;;;;;2.20;1.70;;;7.20;99.90;;;;;;5034314;28;20494;-71
2023/03/17 02:40:26;;;;;;;1.80;1.63;;;7.20;99.90;;;;;;5033947;28;20171;-70
2023/03/17 02:42:53;;;;;;;2.40;2.07;;;7.20;99.90;;;;;;5033513;28;20486;-70
2023/03/17 02:45:18;;;;;;;2.90;2.43;;;7.20;99.90;;;;;;5033573;28;20769;-70
2023/03/17 02:47:45;;;;;;;3.27;2.87;;;7.10;99.90;;;;;;5033297;28;20406;-70
2023/03/17 02:50:22;;;;;;;3.00;2.60;;;7.10;99.90;;;;;;5050199;28;20226;-72
2023/03/17 02:52:48;;;;;;;4.90;2.13;;;7.00;99.90;;;;;;5057001;28;20880;-70
2023/03/17 02:55:15;;;;;;;3.60;2.10;;;6.90;99.90;;;;;;5053194;28;20484;-70
2023/03/17 02:57:40;;;;;;;2.60;2.10;;;6.80;99.90;;;;;;5053258;28;20972;-70
2023/03/17 03:00:09;;;;;;;2.80;1.90;;;6.80;99.90;;;;;;5053763;28;20489;-71
2023/03/17 03:02:36;;;;;;;3.83;2.20;;;6.80;99.90;;;;;;5053525;28;20551;-70
2023/03/17 03:05:02;;;;;;;2.90;2.27;;;6.70;99.90;;;;;;5040437;28;20403;-72
2023/03/17 03:07:27;;;;;;;4.67;2.47;;;6.70;99.90;;;;;;5033076;28;20404;-70
2023/03/17 03:09:53;;;;;;;2.57;1.90;;;6.50;99.90;;;;;;5033054;28;20493;-70
2023/03/17 03:12:18;;;;;;;2.33;2.13;;;6.50;99.90;;;;;;5032957;28;20198;-70
2023/03/17 03:14:44;;;;;;;3.50;2.37;;;6.50;99.90;;;;;;5032338;28;20199;-72
2023/03/17 03:17:10;;;;;;;3.07;2.13;;;6.50;99.90;;;;;;5033082;28;20166;-71
2023/03/17 03:19:35;;;;;;;2.97;2.60;;;6.50;99.90;;;;;;5033231;28;20407;-72
2023/03/17 03:22:01;;;;;;;3.40;2.57;;;6.50;99.90;;;;;;5033506;28;20664;-70
2023/03/17 03:24:27;;;;;;;3.13;2.70;;;6.40;99.90;;;;;;5033214;28;20176;-71
2023/03/17 03:26:52;;;;;;;3.87;2.37;;;6.40;99.90;;;;;;5032985;28;20179;-70
2023/03/17 03:29:18;;;;;;;2.43;2.23;;;6.40;99.90;;;;;;5032911;28;20246;-70
2023/03/17 03:31:43;;;;;;;3.07;2.07;;;6.50;99.90;;;;;;5032916;28;20281;-71
2023/03/17 03:34:09;;;;;;;3.63;3.30;;;6.30;99.90;;;;;;5033093;28;20238;-70
2023/03/17 03:36:35;;;;;;;3.10;2.20;;;6.40;99.90;;;;;;5033282;28;20160;-71
2023/03/17 03:39:02;;;;;;;3.00;2.60;;;6.30;99.90;;;;;;5033101;28;20430;-72
2023/03/17 03:41:27;;;;;;;2.53;2.00;;;6.30;99.90;;;;;;5033325;28;20450;-71
2023/03/17 03:43:53;;;;;;;4.50;2.50;;;6.20;99.90;;;;;;5033456;28;20409;-71
2023/03/17 03:46:18;;;;;;;2.70;2.43;;;6.20;99.90;;;;;;5033295;28;20222;-71
2023/03/17 03:48:44;;;;;;;3.43;2.50;;;6.20;99.90;;;;;;5033014;28;20167;-71
2023/03/17 03:51:09;;;;;;;3.80;2.90;;;6.20;99.90;;;;;;5033137;28;20168;-72
2023/03/17 03:53:35;;;;;;;4.40;2.73;;;6.20;99.90;;;;;;5032585;28;20164;-71
2023/03/17 03:56:00;;;;;;;11.33;2.37;;;6.20;99.90;;;;;;5032826;28;20541;-71
2023/03/17 03:58:26;;;;;;;2.20;2.00;;;6.20;99.90;;;;;;5032163;28;20160;-69
2023/03/17 04:00:51;;;;;;;3.60;2.37;;;6.20;99.90;;;;;;5037340;28;20311;-71
2023/03/17 04:03:17;;;;;;;3.20;1.80;;;6.20;99.90;;;;;;5062265;28;20209;-70
2023/03/17 04:05:43;;;;;;;3.23;2.50;;;6.20;99.90;;;;;;5034206;28;20175;-70
2023/03/17 04:08:10;;;;;;;3.67;3.00;;;6.30;99.90;;;;;;5031894;28;20407;-70
2023/03/17 04:10:35;;;;;;;10.30;2.73;;;6.40;99.90;;;;;;5032338;28;20222;-69
2023/03/17 04:13:01;;;;;;;5.87;2.30;;;6.40;99.90;;;;;;5031926;28;20452;-70
2023/03/17 04:15:27;;;;;;;10.23;3.20;;;6.40;99.90;;;;;;5032491;28;20257;-71
2023/03/17 04:17:53;;;;;;;2.73;2.40;;;6.40;99.90;;;;;;5032036;28;20171;-70
2023/03/17 04:20:19;;;;;;;2.73;2.10;;;6.40;99.90;;;;;;5032022;28;20160;-70
2023/03/17 04:22:45;;;;;;;2.70;2.50;;;6.40;99.90;;;;;;5031883;28;20938;-70
2023/03/17 04:25:13;;;;;;;3.00;2.60;;;6.40;99.90;;;;;;5031913;28;20406;-70
2023/03/17 04:27:39;;;;;;;4.17;2.10;;;6.40;99.90;;;;;;5030308;28;20653;-70
2023/03/17 04:30:05;;;;;;;3.93;2.33;;;6.40;99.90;;;;;;5031715;28;20410;-70
2023/03/17 04:32:31;;;;;;;4.57;2.70;;;6.40;99.90;;;;;;5031785;28;20282;-70
2023/03/17 04:34:57;;;;;;;2.47;2.23;;;6.40;99.90;;;;;;5031993;28;20591;-72
2023/03/17 04:37:23;;;;;;;2.93;2.47;;;6.40;99.90;;;;;;5032109;28;20243;-72
2023/03/17 04:39:48;;;;;;;2.30;2.07;;;6.30;99.90;;;;;;5031161;28;21001;-72
2023/03/17 04:42:14;;;;;;;3.47;2.60;;;6.30;99.90;;;;;;5031752;28;20422;-70
2023/03/17 04:44:41;;;;;;;4.30;2.70;;;6.20;99.90;;;;;;5031836;28;20167;-70
2023/03/17 04:47:07;;;;;;;4.30;2.60;;;6.20;99.90;;;;;;5031461;28;20245;-71
2023/03/17 04:49:32;;;;;;;3.90;3.07;;;6.20;99.90;;;;;;5032415;28;20406;-71
2023/03/17 04:51:58;;;;;;;2.93;2.30;;;6.20;99.90;;;;;;5031203;28;20616;-71
2023/03/17 04:54:24;;;;;;;2.50;2.30;;;6.30;99.90;;;;;;5032125;28;20254;-71
2023/03/17 04:56:49;;;;;;;4.63;2.67;;;6.30;99.90;;;;;;5032319;28;20164;-71
2023/03/17 04:59:15;;;;;;;3.03;2.67;;;6.30;99.90;;;;;;5030671;28;20171;-71
2023/03/17 05:01:40;;;;;;;9.83;2.70;;;6.30;99.90;;;;;;5031833;28;20607;-70
2023/03/17 05:04:06;;;;;;;5.10;2.83;;;6.30;99.90;;;;;;5032003;28;20168;-71
2023/03/17 05:06:32;;;;;;;4.40;2.37;;;6.30;99.90;;;;;;5033576;28;20645;-70
2023/03/17 05:08:58;;;;;;;4.10;2.70;;;6.40;99.90;;;;;;5063295;28;20398;-70
2023/03/17 05:11:23;;;;;;;3.70;3.37;;;6.40;99.90;;;;;;5051823;28;20190;-71
2023/03/17 05:13:49;;;;;;;2.97;2.60;;;6.40;99.90;;;;;;5051811;28;20209;-70
2023/03/17 05:16:15;;;;;;;4.07;2.50;;;6.40;99.90;;;;;;5050443;28;20286;-71
2023/03/17 05:18:40;;;;;;;3.90;3.37;;;6.40;99.90;;;;;;5051781;28;20597;-71
2023/03/17 05:21:06;;;;;;;2.17;1.90;;;6.40;99.90;;;;;;5051686;28;20393;-70
2023/03/17 05:23:33;;;;;;;5.07;2.97;;;6.50;99.90;;;;;;5051833;28;20519;-71
2023/03/17 05:25:58;;;;;;;5.00;3.83;;;6.50;99.90;;;;;;5051768;28;20162;-70
2023/03/17 05:28:25;;;;;;;3.57;2.90;;;6.50;99.90;;;;;;5051358;28;20918;-71
2023/03/17 05:30:51;;;;;;;3.00;2.50;;;6.40;99.90;;;;;;5051549;28;20167;-71
2023/03/17 05:33:18;;;;;;;3.80;3.00;;;6.50;99.90;;;;;;5051554;28;20425;-70
2023/03/17 05:35:44;;;;;;;4.97;3.00;;;6.50;99.90;;;;;;5050259;28;20456;-70
2023/03/17 05:38:10;;;;;;;3.90;2.50;;;6.50;99.90;;;;;;5051934;28;20467;-70
2023/03/17 05:40:36;;;;;;;4.90;2.63;;;6.50;99.90;;;;;;5055131;28;20401;-71
2023/03/17 05:43:03;;;;;;;3.30;3.00;;;6.50;99.90;;;;;;5055087;28;20421;-71
2023/03/17 05:45:29;;;;;;;3.00;2.63;;;6.60;99.90;;;;;;5055058;28;20950;-70
2023/03/17 05:47:55;;;;;;;6.07;2.67;;;6.60;99.90;;;;;;5054801;28;20440;-70
2023/03/17 05:50:21;;;;;;;3.93;2.90;;;6.60;99.90;;;;;;5054905;28;20429;-70
2023/03/17 05:52:47;;;;;;;3.50;2.90;;;6.60;99.90;;;;;;5054833;28;20453;-70
2023/03/17 05:55:13;;;;;;;4.90;2.40;;;6.60;99.90;;;;;;5054833;28;20190;-71
2023/03/17 05:57:39;;;;;;;3.50;2.53;;;6.60;99.90;;;;;;5054496;28;20459;-71
2023/03/17 06:00:06;;;;;;;4.53;3.40;;;6.70;99.90;;;;;;5055027;28;20405;-70
2023/03/17 06:02:32;;;;;;;8.43;3.07;;;6.70;99.90;;;;;;5054576;28;20436;-71
2023/03/17 06:04:57;;;;;;;4.20;3.10;;;6.70;99.90;;;;;;5042331;28;20911;-71
2023/03/17 06:07:23;;;;;;;4.33;2.80;;;6.80;99.90;;;;;;5034564;28;20659;-70
2023/03/17 06:09:48;;;;;;;5.73;3.10;;;6.80;99.90;;;;;;5034916;28;20289;-71
2023/03/17 06:12:15;;;;;;;3.10;2.77;;;6.80;99.90;;;;;;5034708;28;20215;-70
2023/03/17 06:14:40;;;;;;;5.93;3.00;;;6.90;99.90;;;;;;5034533;28;20199;-71
2023/03/17 06:17:06;;;;;;;2.67;2.47;;;6.90;99.90;;;;;;5034292;28;20937;-71
2023/03/17 06:19:32;;;;;;;2.33;2.10;;;7.00;99.90;;;;;;5051879;28;20594;-70
2023/03/17 06:21:58;;;;;;;5.33;3.17;;;7.00;99.90;;;;;;5070857;28;20428;-71
2023/03/17 06:24:24;;;;;;;3.03;2.70;;;7.10;99.90;;;;;;5074268;28;20154;-70
2023/03/17 06:26:51;;;;;;;3.87;2.80;;;7.20;99.90;;;;;;5074210;28;20461;-70
2023/03/17 06:29:17;;;;;;;4.07;2.53;;;7.20;99.90;;;;;;5074249;28;20404;-71
2023/03/17 06:31:49;;;;;;;4.40;2.97;;;7.30;99.90;;;;;;5074098;28;20424;-71
2023/03/17 06:34:15;;;;;;;2.97;2.70;;;7.50;99.90;;;;;;5074290;28;20404;-71
2023/03/17 06:36:40;;;;;;;4.70;3.23;;;7.50;99.90;;;;;;5074187;28;20454;-71
2023/03/17 06:39:06;;;;;;;2.70;2.43;;;7.60;99.90;;;;;;5073801;28;20897;-70
2023/03/17 06:41:32;;;;;;;4.03;3.20;;;7.60;99.90;;;;;;5074110;28;20182;-70
2023/03/17 06:43:57;;;;;;;5.30;3.07;;;7.70;99.90;;;;;;5074098;28;20623;-71
2023/03/17 06:46:23;;;;;;;4.30;2.90;;;7.70;99.90;;;;;;5073926;28;20661;-70
2023/03/17 06:48:48;;;;;;;4.00;2.67;;;7.80;99.90;;;;;;5073377;28;20200;-71
2023/03/17 06:51:14;;;;;;;5.03;3.30;;;7.90;99.90;;;;;;5073887;28;20170;-71
2023/03/17 06:53:40;;;;;;;4.30;3.60;;;8.00;99.90;;;;;;5073596;28;20512;-71
2023/03/17 06:56:06;;;;;;;6.60;3.13;;;8.00;99.90;;;;;;5073627;28;20443;-71
2023/03/17 06:58:32;;;;;;;7.93;3.30;;;8.10;99.90;;;;;;5073427;28;20171;-71
2023/03/17 07:00:58;;;;;;;5.30;3.27;;;8.20;99.90;;;;;;5073481;28;20405;-71
2023/03/17 07:03:24;;;;;;;4.80;2.80;;;8.30;99.90;;;;;;5073144;28;20212;-71
2023/03/17 07:05:51;;;;;;;4.57;3.07;;;8.30;99.90;;;;;;5053724;28;20406;-71
2023/03/17 07:08:16;;;;;;;3.90;3.40;;;8.40;99.90;;;;;;5051517;28;20975;-71
2023/03/17 07:10:43;;;;;;;4.03;2.80;;;8.60;99.90;;;;;;5053056;28;20406;-71
2023/03/17 07:13:09;;;;;;;4.60;3.03;;;8.70;99.90;;;;;;5052888;28;20244;-71
2023/03/17 07:15:36;;;;;;;6.30;2.90;;;8.80;99.90;;;;;;5052849;28;20453;-71
2023/03/17 07:18:02;;;;;;;3.73;2.73;;;8.90;99.90;;;;;;5052641;28;20422;-71
2023/03/17 07:20:28;;;;;;;4.00;3.00;;;9.00;99.90;;;;;;5052882;28;20408;-71
2023/03/17 07:22:53;;;;;;;3.77;3.33;;;9.20;99.90;;;;;;5052730;28;20425;-71
2023/03/17 07:25:19;;;;;;;3.33;3.03;;;9.30;99.90;;;;;;5051560;28;20224;-71
2023/03/17 07:27:45;;;;;;;3.90;3.50;;;9.50;99.90;;;;;;5052452;28;20224;-71
2023/03/17 07:30:12;;;;;;;7.13;3.30;;;9.70;99.90;;;;;;5054625;28;20540;-71
2023/03/17 07:32:38;;;;;;;3.50;3.00;;;10.10;99.90;;;;;;5062555;28;20810;-72
2023/03/17 07:35:04;;;;;;;3.53;2.67;;;10.60;99.90;;;;;;5052588;28;20830;-71
2023/03/17 07:37:30;;;;;;;5.03;3.00;;;11.20;99.90;;;;;;5050933;28;20929;-71
2023/03/17 07:39:55;;;;;;;3.50;2.70;;;11.70;99.90;;;;;;5052658;28;20393;-72
2023/03/17 07:42:21;;;;;;;4.77;2.77;;;12.10;99.90;;;;;;5052423;28;20214;-72
2023/03/17 07:44:46;;;;;;;3.27;2.97;;;12.40;99.90;;;;;;5052559;28;20171;-72
2023/03/17 07:47:13;;;;;;;5.50;3.07;;;12.60;99.90;;;;;;5052297;28;20237;-71
2023/03/17 07:49:39;;;;;;;4.50;2.80;;;12.70;99.90;;;;;;5052068;28;20567;-71
2023/03/17 07:52:05;;;;;;;7.63;2.50;;;12.60;99.90;;;;;;5052314;28;20440;-71
2023/03/17 07:54:31;;;;;;;2.60;2.40;;;12.60;99.90;;;;;;5052150;28;20475;-71
2023/03/17 07:56:56;;;;;;;4.07;3.47;;;12.60;99.90;;;;;;5051962;28;20401;-71
2023/03/17 07:59:22;;;;;;;3.97;3.03;;;12.70;99.90;;;;;;5052441;28;20409;-71
2023/03/17 08:01:49;;;;;;;4.10;3.03;;;12.80;99.90;;;;;;5051672;28;20189;-71
2023/03/17 08:04:15;;;;;;;4.67;2.47;;;12.80;99.90;;;;;;5045803;28;20166;-71
2023/03/17 08:06:41;;;;;;;2.70;2.50;;;12.70;99.90;;;;;;5032200;28;20432;-72
2023/03/17 08:09:07;;;;;;;7.60;2.67;;;12.80;99.90;;;;;;5031833;28;20213;-71
2023/03/17 08:11:34;;;;;;;6.40;2.70;;;13.00;99.90;;;;;;5032074;28;20418;-72
2023/03/17 08:14:01;;;;;;;8.73;3.30;;;13.20;99.90;;;;;;5032111;28;20426;-71
2023/03/17 08:16:27;;;;;;;4.00;2.30;;;13.50;99.90;;;;;;5031988;28;20445;-71
2023/03/17 08:18:53;;;;;;;6.30;2.63;;;13.80;99.90;;;;;;5031705;28;20485;-73
2023/03/17 08:21:19;;;;;;;3.77;2.63;;;14.10;99.30;;;;;;5032005;28;20445;-72
2023/03/17 08:23:45;;;;;;;5.47;2.63;;;14.50;98.30;;;;;;5031932;28;20167;-71
2023/03/17 08:26:13;;;;;;;4.40;2.83;;;14.80;96.80;;;;;;5031981;28;20250;-71
2023/03/17 08:28:39;;;;;;;2.83;2.57;;;15.30;95.50;;;;;;5031748;28;20923;-71
2023/03/17 08:31:07;;;;;;;2.57;2.37;;;15.80;93.70;;;;;;5031813;28;20445;-71
2023/03/17 08:33:33;;;;;;;6.80;2.90;;;16.50;90.50;;;;;;5030652;28;20440;-71
2023/03/17 08:35:59;;;;;;;3.10;2.80;;;17.20;86.90;;;;;;5031750;28;20446;-71
2023/03/17 08:38:24;;;;;;;3.70;2.53;;;17.70;78.70;;;;;;5031421;28;20850;-70
2023/03/17 08:40:51;;;;;;;4.17;2.90;;;17.90;74.30;;;;;;5031836;28;20246;-70
2023/03/17 08:43:17;;;;;;;5.80;2.80;;;17.90;70.60;;;;;;5057937;28;20194;-71
2023/03/17 08:45:43;;;;;;;2.73;2.40;;;18.00;68.70;;;;;;5071595;28;20476;-70
2023/03/17 08:48:09;;;;;;;4.13;3.23;;;18.00;66.90;;;;;;5071453;28;20484;-70
2023/03/17 08:50:34;;;;;;;3.50;2.80;;;17.90;65.70;;;;;;5070265;28;20169;-70
2023/03/17 08:53:00;;;;;;;3.83;2.60;;;17.50;67.70;;;;;;5071465;28;20551;-70
2023/03/17 08:55:26;;;;;;;5.93;2.20;;;17.40;67.80;;;;;;5071547;28;20205;-70
2023/03/17 08:57:52;;;;;;;4.47;2.80;;;17.30;66.90;;;;;;5071348;28;20901;-70
2023/03/17 09:00:19;;;;;;;2.43;1.90;;;17.10;67.10;;;;;;5071605;28;20245;-70
2023/03/17 09:02:46;;;;;;;2.43;2.07;;;16.90;67.70;;;;;;5071204;28;20179;-70
2023/03/17 09:05:13;;;;;;;3.00;1.93;;;16.70;68.30;;;;;;5056010;28;20418;-69
2023/03/17 09:07:40;;;;;;;3.40;2.10;;;16.60;68.00;;;;;;5051169;28;20401;-70
2023/03/17 09:10:09;;;;;;;2.17;1.97;;;16.40;68.20;;;;;;5051142;28;20421;-69
2023/03/17 09:12:36;;;;;;;2.70;2.30;;;16.20;68.30;;;;;;5051323;28;20574;-70
2023/03/17 09:15:03;;;;;;;2.70;1.70;;;16.20;69.50;;;;;;5054777;28;20452;-71
2023/03/17 09:17:28;;;;;;;3.20;2.90;;;16.40;70.00;;;;;;5054882;28;20427;-70
2023/03/17 09:19:53;;;;;;;4.77;2.33;;;16.50;69.80;;;;;;5055075;28;20769;-70
2023/03/17 09:22:19;;;;;;;2.80;2.03;;;16.80;70.30;;;;;;5055033;28;20187;-71
2023/03/17 09:24:45;;;;;;;3.00;2.37;;;17.00;68.10;;;;;;5054980;28;20221;-71
2023/03/17 09:27:11;;;;;;;2.20;1.80;;;17.10;71.10;;;;;;5054667;28;20171;-71
2023/03/17 09:29:37;;;;;;;4.07;2.57;;;17.20;69.70;;;;;;5054867;28;20480;-70
2023/03/17 09:32:02;;;;;;;2.60;2.10;;;17.20;69.80;;;;;;5054904;28;20525;-71
2023/03/17 09:34:28;;;;;;;4.23;2.67;;;17.40;69.30;;;;;;5054734;28;20171;-70
2023/03/17 09:36:55;;;;;;;2.63;2.43;;;17.70;69.10;;;;;;5054585;28;20159;-71
2023/03/17 09:39:21;;;;;;;2.53;2.30;;;18.00;67.90;;;;;;5054809;28;20224;-71
2023/03/17 09:41:51;;;;;;;3.40;2.23;;;18.00;67.50;;;;;;5054756;28;20421;-71
2023/03/17 09:44:31;;;;;;;3.00;2.07;;;18.10;66.90;;;;;;5054754;28;20398;-70
2023/03/17 09:47:11;;;;;;;2.43;2.23;;;18.20;65.20;;;;;;5054373;28;20401;-70
2023/03/17 09:49:50;;;;;;;2.43;2.23;;;18.30;62.90;;;;;;5064292;28;20411;-70
2023/03/17 09:52:23;;;;;;;2.33;2.13;;;18.70;64.60;;;;;;5055159;28;20467;-70
2023/03/17 09:54:49;;;;;;;3.60;2.43;;;19.10;62.50;;;;;;5054465;28;20475;-71
2023/03/17 09:57:25;;;;;;;3.10;2.20;;;19.70;63.00;;;;;;5054137;28;20393;-70
2023/03/17 10:00:00;;;;;;;5.27;2.33;;;20.10;59.90;;;;;;5054369;28;20405;-70
2023/03/17 10:02:36;;;;;;;3.10;2.47;;;20.70;58.60;;;;;;5054306;28;20468;-71
2023/03/17 10:05:12;;;;;;;2.40;2.20;;;21.30;58.30;;;;;;5041029;28;20406;-71
2023/03/17 10:07:58;;;;;;;3.60;2.80;;;21.50;56.30;;;;;;5034046;28;20398;-71
2023/03/17 10:10:47;;;;;;;3.77;2.23;;;21.40;55.60;;;;;;5034240;28;20426;-71
2023/03/17 10:13:20;;;;;;;3.07;2.47;;;21.00;54.40;;;;;;5029895;28;20446;-71
2023/03/17 10:16:09;;;;;;;2.70;2.50;;;20.80;55.50;;;;;;5032535;28;20454;-71
2023/03/17 10:18:57;;;;;;;2.40;2.20;;;20.40;55.30;;;;;;5033471;28;20457;-71
2023/03/17 10:21:31;;;;;;;4.37;2.40;;;20.10;56.00;;;;;;5033962;28;20462;-71
2023/03/17 10:23:58;;;;;;;4.03;2.60;;;19.90;55.90;;;;;;5033594;28;20964;-71
2023/03/17 10:26:41;;;;;;;3.07;2.27;;;19.70;56.30;;;;;;5033960;28;20406;-70
2023/03/17 10:29:14;;;;;;;3.80;2.20;;;19.70;56.50;;;;;;5033650;28;20410;-70
2023/03/17 10:31:40;;;;;;;3.97;3.53;;;19.90;58.80;;;;;;5033820;28;20462;-71
2023/03/17 10:34:14;;;;;;;3.13;2.70;;;20.40;58.90;;;;;;5033847;28;20439;-71
2023/03/17 10:36:50;;;;;;;2.30;2.10;;;21.60;58.50;;;;;;5033767;28;20222;-71
2023/03/17 10:39:20;;;;;;;3.77;2.03;;;22.90;56.20;;;;;;5033765;28;20412;-71
2023/03/17 10:42:09;;;;;;;2.53;2.30;;;24.10;54.20;;;;;;5033685;28;20824;-71
2023/03/17 10:44:47;;;;;;;4.43;2.70;;;25.50;51.60;;;;;;5033652;28;20462;-71
2023/03/17 10:47:28;;;;;;;3.13;2.50;;;26.30;48.80;;;;;;5032059;28;20417;-71
2023/03/17 10:49:56;;;;;;;5.43;2.80;;;27.50;47.80;;;;;;5033536;28;20410;-71
2023/03/17 10:52:26;;;;;;;3.13;2.50;;;28.70;44.90;;;;;;5033359;28;20430;-72
2023/03/17 10:54:53;;;;;;;3.30;2.17;;;30.20;43.20;;;;;;5032841;28;20568;-71
2023/03/17 10:57:19;;;;;;;5.03;2.30;;;31.00;40.00;;;;;;5033013;28;20437;-72
2023/03/17 10:59:51;;;;;;;2.93;2.10;;;32.10;38.30;;;;;;5037295;28;20421;-72
2023/03/17 11:02:25;;;;;;;2.50;2.30;;;33.40;37.40;;;;;;5061864;28;20834;-73
2023/03/17 11:05:18;;;;;;;11.33;2.90;;;34.70;35.00;;;;;;5061747;28;20409;-73
2023/03/17 11:07:44;;;;;;;3.43;3.10;;;36.00;33.10;;;;;;5050517;28;20792;-71
2023/03/17 11:10:34;;;;;;;2.90;2.53;;;35.90;30.20;;;;;;5053327;28;20409;-71
2023/03/17 11:13:01;;;;;;;2.60;2.30;;;34.90;29.80;;;;;;5052697;28;20194;-70
2023/03/17 11:15:55;;;;;;;3.80;2.10;;;33.60;30.60;;;;;;5052917;28;20491;-69
2023/03/17 11:18:30;;;;;;;2.37;2.00;;;32.40;30.50;;;;;;5052327;28;20436;-71
2023/03/17 11:21:01;;;;;;;3.00;2.17;;;31.20;32.80;;;;;;5052877;28;20397;-70
2023/03/17 11:23:41;;;;;;;3.17;2.57;;;31.10;32.60;;;;;;5052994;28;20398;-71
2023/03/17 11:26:30;;;;;;;3.23;2.60;;;31.10;33.00;;;;;;5052948;28;20470;-70
2023/03/17 11:29:21;;;;;;;2.30;2.10;;;31.10;33.60;;;;;;5051187;28;20413;-71
2023/03/17 11:32:08;;;;;;;2.93;1.97;;;31.60;32.80;;;;;;5052681;28;20467;-71
2023/03/17 11:34:33;;;;;;;2.40;2.20;;;32.10;32.60;;;;;;5052595;28;20420;-70
2023/03/17 11:37:31;;;;;;;3.37;2.90;;;32.80;33.30;;;;;;5051623;28;20484;-70
2023/03/17 11:40:16;;;;;;;3.40;2.43;;;33.60;32.00;;;;;;5047790;28;20182;-70
2023/03/17 11:43:20;;;;;;;2.93;2.40;;;33.70;30.20;;;;;;5052416;28;20459;-71
2023/03/17 11:46:11;;;;;;;2.77;2.53;;;33.40;30.10;;;;;;5052421;28;20398;-71
2023/03/17 11:49:05;;;;;;;3.70;2.33;;;32.70;30.20;;;;;;5052077;28;21044;-70
2023/03/17 11:51:44;;;;;;;2.90;2.20;;;32.10;30.10;;;;;;5052289;28;20429;-70
2023/03/17 11:54:53;;;;;;;5.30;2.77;;;30.80;30.60;;;;;;5052233;28;20923;-70
2023/03/17 11:57:32;;;;;;;2.30;2.00;;;29.40;32.10;;;;;;5049245;28;20425;-70
2023/03/17 12:00:15;;;;;;;3.10;2.27;;;28.50;33.50;;;;;;5051105;28;20413;-70
2023/03/17 12:02:58;;;;;;;3.60;2.50;;;27.50;34.80;;;;;;5051936;28;20425;-70
2023/03/17 12:05:26;;;;;;;8.00;2.10;;;26.40;36.20;;;;;;5036512;28;20852;-70
2023/03/17 12:07:57;;;;;;;2.90;2.30;;;25.60;37.50;;;;;;5030597;28;20414;-70
2023/03/17 12:10:27;;;;;;;2.30;2.10;;;25.20;37.50;;;;;;5032246;28;20402;-70
2023/03/17 12:12:59;;;;;;;2.80;1.73;;;25.00;38.30;;;;;;5058958;28;20433;-70
2023/03/17 12:15:31;;;;;;;2.23;1.80;;;24.50;38.50;;;;;;5032220;28;20454;-70
2023/03/17 12:18:05;;;;;;;2.10;2.00;;;24.40;40.20;;;;;;5031733;28;20497;-69
2023/03/17 12:21:00;;;;;;;2.47;2.07;;;24.10;39.60;;;;;;5032088;28;20406;-71
2023/03/17 12:23:35;;;;;;;4.70;2.70;;;23.90;40.70;;;;;;5032088;28;20406;-70
2023/03/17 12:26:06;;;;;;;3.17;2.17;;;23.60;41.10;;;;;;5031945;28;20422;-70
2023/03/17 12:28:39;;;;;;;7.67;2.90;;;23.40;42.10;;;;;;5031889;28;20861;-70
2023/03/17 12:31:09;;;;;;;2.10;1.87;;;23.20;41.90;;;;;;5031665;28;20399;-71
2023/03/17 12:33:49;;;;;;;2.00;1.77;;;23.40;43.30;;;;;;5031693;28;20406;-70
2023/03/17 12:36:16;;;;;;;3.90;2.03;;;23.70;43.10;;;;;;5031830;28;20445;-71
2023/03/17 12:38:49;;;;;;;2.57;1.90;;;23.90;42.70;;;;;;5031560;28;20402;-71
2023/03/17 12:41:27;;;;;;;4.53;2.67;;;24.20;43.10;;;;;;5031794;28;20456;-72
2023/03/17 12:44:20;;;;;;;2.20;2.00;;;24.70;41.60;;;;;;5031787;28;20398;-70
2023/03/17 12:47:16;;;;;;;3.00;1.90;;;25.00;41.50;;;;;;5031811;28;20394;-71
2023/03/17 12:49:48;;;;;;;4.43;2.50;;;25.30;42.10;;;;;;5035890;28;20452;-69
2023/03/17 12:52:36;;;;;;;10.03;2.07;;;25.00;40.30;;;;;;5035733;28;20429;-71
2023/03/17 12:55:03;;;;;;;3.50;2.73;;;25.00;40.90;;;;;;5035663;28;20453;-71
2023/03/17 12:57:45;;;;;;;9.20;2.60;;;25.00;39.90;;;;;;5035445;28;20397;-70
2023/03/17 13:00:28;;;;;;;3.63;2.40;;;24.80;41.50;;;;;;5035768;28;20398;-70
2023/03/17 13:03:16;;;;;;;2.67;2.40;;;25.10;41.60;;;;;;5035547;28;20417;-70